createdAt,value
2019-01-08T00:00:48.968Z,99787.80
2019-01-08T00:03:15.940Z,99779.34
2019-01-08T00:05:43.172Z,99764.99
2019-01-08T00:08:10.129Z,99750.71
2019-01-08T00:10:36.997Z,99746.53
2019-01-08T00:13:03.896Z,99739.85
2019-01-08T00:15:30.848Z,99733.94
2019-01-08T00:17:57.768Z,99726.80
2019-01-08T00:20:24.651Z,99717.55
2019-01-08T00:22:51.591Z,99712.48
2019-01-08T00:25:18.739Z,99706.65
2019-01-08T00:27:45.963Z,99705.24
2019-01-08T00:30:12.945Z,99692.30
2019-01-08T00:32:39.881Z,99697.27
2019-01-08T00:35:07.168Z,99692.20
2019-01-08T00:37:34.039Z,99687.25
2019-01-08T00:40:00.930Z,99688.13
2019-01-08T00:42:27.822Z,99685.20
2019-01-08T00:44:55.077Z,99677.16
2019-01-08T00:47:22.314Z,99682.67
2019-01-08T00:49:49.313Z,99672.58
2019-01-08T00:52:16.511Z,99673.40
2019-01-08T00:54:43.422Z,99659.11
2019-01-08T00:57:10.555Z,99657.44
2019-01-08T00:59:37.704Z,99649.81
2019-01-08T01:02:04.657Z,99631.34
2019-01-08T01:04:31.565Z,99635.55
2019-01-08T01:06:58.790Z,99624.62
2019-01-08T01:09:25.672Z,99625.46
2019-01-08T01:11:53.698Z,99610.74
2019-01-08T01:14:20.673Z,99601.09
2019-01-08T01:16:47.912Z,99594.76
2019-01-08T01:19:15.143Z,99582.52
2019-01-08T01:21:42.106Z,99576.25
2019-01-08T01:24:09.235Z,99569.91
2019-01-08T01:26:36.412Z,99567.42
2019-01-08T01:29:03.389Z,99568.63
2019-01-08T01:31:30.375Z,99569.94
2019-01-08T01:33:57.666Z,99560.26
2019-01-08T01:36:24.826Z,99569.09
2019-01-08T01:38:53.694Z,99551.43
2019-01-08T01:41:20.670Z,99548.91
2019-01-08T01:43:47.553Z,99533.73
2019-01-08T01:46:14.771Z,99524.34
2019-01-08T01:48:41.705Z,99523.55
2019-01-08T01:51:08.917Z,99524.41
2019-01-08T01:53:35.895Z,99508.48
2019-01-08T01:56:02.866Z,99500.96
2019-01-08T01:58:29.814Z,99491.66
2019-01-08T02:00:57.046Z,99483.30
2019-01-08T02:03:23.935Z,99489.61
2019-01-08T02:05:50.979Z,99472.38
2019-01-08T02:08:18.219Z,99465.59
2019-01-08T02:10:45.165Z,99468.97
2019-01-08T02:13:12.325Z,99452.20
2019-01-08T02:15:39.519Z,99458.51
2019-01-08T02:18:06.662Z,99444.48
2019-01-08T02:20:33.829Z,99425.59
2019-01-08T02:23:00.725Z,99427.80
2019-01-08T02:25:28.049Z,99432.78
2019-01-08T02:27:55.193Z,99430.72
2019-01-08T02:30:22.192Z,99424.82
2019-01-08T02:32:49.149Z,99419.42
2019-01-08T02:35:16.314Z,99413.53
2019-01-08T02:37:43.539Z,99403.05
2019-01-08T02:40:10.476Z,99405.56
2019-01-08T02:42:37.354Z,99401.75
2019-01-08T02:45:04.630Z,99391.22
2019-01-08T02:47:31.521Z,99375.28
2019-01-08T02:49:58.670Z,99368.98
2019-01-08T02:52:25.886Z,99361.02
2019-01-08T02:54:52.825Z,99361.00
2019-01-08T02:57:19.766Z,99342.48
2019-01-08T02:59:46.661Z,99339.94
2019-01-08T03:02:13.626Z,99326.15
2019-01-08T03:04:40.580Z,99317.72
2019-01-08T03:07:07.740Z,99304.70
2019-01-08T03:09:34.693Z,99308.86
2019-01-08T03:12:01.939Z,99298.84
2019-01-08T03:14:28.838Z,99300.93
2019-01-08T03:16:55.828Z,99290.41
2019-01-08T03:19:22.718Z,99285.36
2019-01-08T03:21:49.908Z,99289.56
2019-01-08T03:24:17.847Z,99285.00
2019-01-08T03:26:44.826Z,99280.78
2019-01-08T03:29:11.765Z,99263.97
2019-01-08T03:31:38.706Z,99260.20
2019-01-08T03:34:05.996Z,99258.52
2019-01-08T03:36:33.023Z,99257.66
2019-01-08T03:38:59.915Z,99249.69
2019-01-08T03:41:26.875Z,99245.50
2019-01-08T03:43:54.003Z,99247.20
2019-01-08T03:46:21.134Z,99237.53
2019-01-08T03:48:48.303Z,99235.02
2019-01-08T03:51:15.256Z,99228.27
2019-01-08T03:53:42.417Z,99223.66
2019-01-08T03:56:09.308Z,99216.52
2019-01-08T03:58:36.518Z,99208.59
2019-01-08T04:01:03.645Z,99214.48
2019-01-08T04:03:30.829Z,99221.14
2019-01-08T04:05:57.806Z,99213.58
2019-01-08T04:08:25.073Z,99210.63
2019-01-08T04:10:52.265Z,99203.00
2019-01-08T04:13:19.498Z,99205.16
2019-01-08T04:15:46.621Z,99201.35
2019-01-08T04:18:13.786Z,99200.13
2019-01-08T04:20:40.772Z,99191.73
2019-01-08T04:23:07.661Z,99187.56
2019-01-08T04:25:34.593Z,99188.77
2019-01-08T04:28:01.493Z,99180.44
2019-01-08T04:30:28.707Z,99170.67
2019-01-08T04:32:57.222Z,99168.11
2019-01-08T04:35:24.165Z,99179.92
2019-01-08T04:37:51.336Z,99169.33
2019-01-08T04:40:44.155Z,99174.41
2019-01-08T04:42:51.488Z,99163.66
2019-01-08T04:45:18.890Z,99157.23
2019-01-08T04:47:46.419Z,99160.58
2019-01-08T04:50:13.715Z,99150.02
2019-01-08T04:52:41.285Z,99145.86
2019-01-08T04:55:08.274Z,99137.06
2019-01-08T04:57:35.553Z,99127.22
2019-01-08T05:00:02.601Z,99128.36
2019-01-08T05:02:29.591Z,99123.23
2019-01-08T05:04:57.270Z,99142.92
2019-01-08T05:07:24.266Z,99127.30
2019-01-08T05:09:51.269Z,99126.22
2019-01-08T05:12:18.592Z,99103.92
2019-01-08T05:14:45.639Z,99098.52
2019-01-08T05:17:12.596Z,99093.37
2019-01-08T05:19:39.856Z,99093.37
2019-01-08T05:22:07.275Z,99079.90
2019-01-08T05:24:34.234Z,99087.47
2019-01-08T05:27:01.179Z,99090.83
2019-01-08T05:29:28.163Z,99097.61
2019-01-08T05:31:57.950Z,99084.15
2019-01-08T05:34:25.067Z,99085.48
2019-01-08T05:36:53.862Z,99085.47
2019-01-08T05:39:20.887Z,99076.48
2019-01-08T05:41:48.168Z,99071.48
2019-01-08T05:44:15.150Z,99062.30
2019-01-08T05:46:42.155Z,99063.19
2019-01-08T05:49:09.177Z,99061.16
2019-01-08T05:51:36.535Z,99061.27
2019-01-08T05:54:03.818Z,99048.74
2019-01-08T05:56:31.968Z,99047.06
2019-01-08T05:58:58.967Z,99038.69
2019-01-08T06:01:28.266Z,99047.53
2019-01-08T06:03:54.913Z,99030.95
2019-01-08T06:06:23.098Z,99036.16
2019-01-08T06:08:50.062Z,99029.03
2019-01-08T06:11:17.047Z,99022.23
2019-01-08T06:13:44.160Z,99021.80
2019-01-08T06:16:11.204Z,99020.44
2019-01-08T06:18:42.419Z,99009.75
2019-01-08T06:21:09.392Z,99007.39
2019-01-08T06:23:36.363Z,99008.70
2019-01-08T06:26:04.517Z,98995.39
2019-01-08T06:28:31.522Z,98986.62
2019-01-08T06:33:46.137Z,98985.69
2019-01-08T06:36:13.607Z,98974.88
2019-01-08T06:38:40.889Z,98973.51
2019-01-08T06:41:08.182Z,98962.64
2019-01-08T06:43:35.230Z,98953.86
2019-01-08T06:46:02.584Z,98956.00
2019-01-08T06:48:29.939Z,98956.05
2019-01-08T06:50:57.353Z,98946.34
2019-01-08T06:53:24.549Z,98946.31
2019-01-08T06:55:51.545Z,98956.17
2019-01-08T06:58:18.816Z,98940.83
2019-01-08T07:00:47.561Z,98947.89
2019-01-08T07:03:14.486Z,98943.56
2019-01-08T07:05:41.452Z,98931.00
2019-01-08T07:08:08.733Z,98932.81
2019-01-08T07:10:35.642Z,98935.33
2019-01-08T07:13:02.628Z,98935.70
2019-01-08T07:15:29.670Z,98919.45
2019-01-08T07:17:56.796Z,98927.34
2019-01-08T07:20:23.704Z,98914.44
2019-01-08T07:22:50.916Z,98908.18
2019-01-08T07:25:18.189Z,98906.94
2019-01-08T07:27:54.597Z,98903.50
2019-01-08T07:30:23.631Z,98887.48
2019-01-08T07:32:50.774Z,98898.98
2019-01-08T07:35:17.733Z,98891.77
2019-01-08T07:37:44.713Z,98881.98
2019-01-08T07:40:11.961Z,98875.86
2019-01-08T07:42:38.910Z,98874.80
2019-01-08T07:45:05.789Z,98874.50
2019-01-08T07:47:33.073Z,98871.89
2019-01-08T07:50:00.309Z,98858.54
2019-01-08T07:52:27.549Z,98852.95
2019-01-08T07:54:54.805Z,98849.81
2019-01-08T07:57:22.035Z,98838.25
2019-01-08T07:59:49.210Z,98841.36
2019-01-08T08:02:17.830Z,98840.14
2019-01-08T08:04:47.724Z,98839.51
2019-01-08T08:07:13.403Z,98841.20
2019-01-08T08:09:40.328Z,98830.89
2019-01-08T08:12:07.326Z,98844.23
2019-01-08T08:14:34.259Z,98838.45
2019-01-08T08:17:01.226Z,98828.23
2019-01-08T08:19:30.652Z,98821.70
2019-01-08T08:21:57.591Z,98812.98
2019-01-08T08:24:24.601Z,98797.98
2019-01-08T08:26:51.571Z,98814.61
2019-01-08T08:29:18.614Z,98812.42
2019-01-08T08:31:45.618Z,98791.23
2019-01-08T08:34:12.629Z,98802.88
2019-01-08T08:36:39.863Z,98780.98
2019-01-08T08:39:06.819Z,98790.22
2019-01-08T08:41:33.788Z,98789.74
2019-01-08T08:44:00.722Z,98778.13
2019-01-08T08:46:28.814Z,98781.67
2019-01-08T08:48:56.024Z,98781.34
2019-01-08T08:51:23.256Z,98772.39
2019-01-08T08:53:52.728Z,98775.81
2019-01-08T08:56:18.835Z,98766.00
2019-01-08T08:58:45.811Z,98766.16
2019-01-08T09:01:13.119Z,98765.45
2019-01-08T09:03:40.102Z,98768.95
2019-01-08T09:06:07.138Z,98772.96
2019-01-08T09:08:34.115Z,98776.02
2019-01-08T09:11:01.149Z,98761.83
2019-01-08T09:13:28.140Z,98770.71
2019-01-08T09:15:55.115Z,98764.82
2019-01-08T09:18:22.092Z,98758.91
2019-01-08T09:20:49.055Z,98773.44
2019-01-08T09:23:16.015Z,98752.66
2019-01-08T09:25:42.970Z,98765.91
2019-01-08T09:28:11.258Z,98741.11
2019-01-08T09:30:38.138Z,98751.34
2019-01-08T09:33:05.020Z,98744.59
2019-01-08T09:35:31.904Z,98737.37
2019-01-08T09:37:58.947Z,98720.41
2019-01-08T09:40:25.930Z,98725.26
2019-01-08T09:42:53.083Z,98717.11
2019-01-08T09:45:20.305Z,98709.50
2019-01-08T09:47:47.542Z,98710.72
2019-01-08T09:50:14.495Z,98704.67
2019-01-08T09:52:41.770Z,98722.11
2019-01-08T09:55:09.145Z,98714.59
2019-01-08T09:57:36.454Z,98709.59
2019-01-08T10:00:03.700Z,98707.73
2019-01-08T10:02:30.994Z,98696.27
2019-01-08T10:04:57.949Z,98711.05
2019-01-08T10:07:25.998Z,98680.73
2019-01-08T10:09:52.940Z,98702.45
2019-01-08T10:12:19.827Z,98685.41
2019-01-08T10:14:47.049Z,98675.32
2019-01-08T10:17:14.028Z,98671.30
2019-01-08T10:19:40.972Z,98654.14
2019-01-08T10:22:08.166Z,98657.80
2019-01-08T10:24:35.097Z,98652.66
2019-01-08T10:27:02.004Z,98634.53
2019-01-08T10:29:29.235Z,98635.80
2019-01-08T10:31:56.472Z,98649.53
2019-01-08T10:34:23.426Z,98639.42
2019-01-08T10:36:50.401Z,98646.91
2019-01-08T10:39:17.365Z,98619.27
2019-01-08T10:41:44.578Z,98620.16
2019-01-08T10:44:11.540Z,98614.32
2019-01-08T10:46:38.501Z,98601.11
2019-01-08T10:49:05.370Z,98602.75
2019-01-08T10:51:32.284Z,98594.59
2019-01-08T10:53:59.200Z,98587.50
2019-01-08T10:56:26.184Z,98579.53
2019-01-08T10:58:53.114Z,98576.09
2019-01-08T11:01:19.987Z,98569.38
2019-01-08T11:03:50.989Z,98561.81
2019-01-08T11:06:17.891Z,98543.72
2019-01-08T11:08:44.772Z,98544.36
2019-01-08T11:11:14.728Z,98533.60
2019-01-08T11:13:43.339Z,98527.67
2019-01-08T11:16:10.314Z,98530.98
2019-01-08T11:18:39.306Z,98518.52
2019-01-08T11:21:06.291Z,98510.06
2019-01-08T11:23:33.462Z,98495.87
2019-01-08T11:26:00.598Z,98492.17
2019-01-08T11:28:27.598Z,98474.33
2019-01-08T11:30:54.476Z,98485.86
2019-01-08T11:33:21.445Z,98467.16
2019-01-08T11:35:48.670Z,98456.23
2019-01-08T11:38:15.659Z,98450.25
2019-01-08T11:40:42.812Z,98441.39
2019-01-08T11:43:11.743Z,98423.01
2019-01-08T11:45:39.582Z,98414.18
2019-01-08T11:48:06.582Z,98412.69
2019-01-08T11:50:33.823Z,98411.52
2019-01-08T11:53:00.796Z,98405.47
2019-01-08T11:55:27.741Z,98414.17
2019-01-08T11:57:54.734Z,98413.06
2019-01-08T12:00:21.717Z,98411.84
2019-01-08T12:02:48.697Z,98378.16
2019-01-08T12:05:15.671Z,98391.26
2019-01-08T12:07:52.000Z,98386.18
2019-01-08T12:10:16.995Z,98363.14
2019-01-08T12:12:44.033Z,98365.14
2019-01-08T12:15:11.043Z,98367.95
2019-01-08T12:17:39.169Z,98348.05
2019-01-08T12:20:06.204Z,98338.09
2019-01-08T12:22:40.812Z,98339.30
2019-01-08T12:25:05.102Z,98328.37
2019-01-08T12:27:32.433Z,98327.94
2019-01-08T12:29:59.385Z,98329.44
2019-01-08T12:32:26.441Z,98331.83
2019-01-08T12:34:57.239Z,98324.77
2019-01-08T12:40:12.318Z,98321.98
2019-01-08T12:42:39.677Z,98327.66
2019-01-08T12:45:08.860Z,98325.67
2019-01-08T12:47:36.159Z,98344.30
2019-01-08T12:50:03.976Z,98323.02
2019-01-08T12:52:30.957Z,98334.03
2019-01-08T12:54:58.047Z,98331.28
2019-01-08T12:57:25.038Z,98332.29
2019-01-08T12:59:52.023Z,98339.75
2019-01-08T13:02:19.131Z,98323.64
2019-01-08T13:04:46.151Z,98330.39
2019-01-08T13:07:13.109Z,98339.01
2019-01-08T13:09:40.082Z,98335.11
2019-01-08T13:12:07.312Z,98328.20
2019-01-08T13:14:34.237Z,98342.11
2019-01-08T13:17:01.230Z,98326.73
2019-01-08T13:19:28.577Z,98326.16
2019-01-08T13:21:55.533Z,98330.27
2019-01-08T13:24:22.786Z,98339.10
2019-01-08T13:26:49.776Z,98335.50
2019-01-08T13:29:16.814Z,98325.35
2019-01-08T13:31:43.761Z,98330.70
2019-01-08T13:34:10.755Z,98326.16
2019-01-08T13:36:37.952Z,98316.16
2019-01-08T13:39:04.858Z,98320.19
2019-01-08T13:41:32.048Z,98325.48
2019-01-08T13:44:00.256Z,98313.38
2019-01-08T13:46:27.164Z,98319.46
2019-01-08T13:48:54.349Z,98320.19
2019-01-08T13:51:21.566Z,98304.53
2019-01-08T13:53:48.733Z,98304.91
2019-01-08T13:56:15.744Z,98305.66
2019-01-08T13:58:45.687Z,98308.78
2019-01-08T14:01:11.407Z,98298.97
2019-01-08T14:03:38.381Z,98304.09
2019-01-08T14:06:07.736Z,98287.14
2019-01-08T14:08:34.256Z,98284.86
2019-01-08T14:11:02.886Z,98289.16
2019-01-08T14:13:30.297Z,98285.73
2019-01-08T14:15:57.478Z,98282.19
2019-01-08T14:18:24.401Z,98291.55
2019-01-08T14:20:51.325Z,98269.95
2019-01-08T14:23:18.693Z,98305.09
2019-01-08T14:25:45.753Z,98281.75
2019-01-08T14:28:12.766Z,98286.92
2019-01-08T14:30:40.051Z,98293.73
2019-01-08T14:33:07.042Z,98271.95
2019-01-08T14:35:34.054Z,98286.16
2019-01-08T14:38:01.757Z,98296.63
2019-01-08T14:40:34.440Z,98284.16
2019-01-08T14:43:02.471Z,98287.10
2019-01-08T14:45:29.963Z,98286.88
2019-01-08T14:47:56.914Z,98286.23
2019-01-08T14:50:24.176Z,98296.39
2019-01-08T14:52:51.194Z,98290.17
2019-01-08T14:55:18.620Z,98292.33
2019-01-08T14:57:47.987Z,98292.47
2019-01-08T15:00:14.219Z,98285.98
2019-01-08T15:02:49.234Z,98283.91
2019-01-08T15:05:10.386Z,98294.78
2019-01-08T15:07:37.791Z,98304.31
2019-01-08T15:10:04.953Z,98286.05
2019-01-08T15:12:31.923Z,98298.13
2019-01-08T15:14:59.196Z,98294.08
2019-01-08T15:17:26.129Z,98295.34
2019-01-08T15:19:53.106Z,98294.39
2019-01-08T15:22:21.960Z,98302.06
2019-01-08T15:24:49.198Z,98309.02
2019-01-08T15:27:16.668Z,98302.28
2019-01-08T15:29:43.650Z,98298.98
2019-01-08T15:32:10.624Z,98295.79
2019-01-08T15:34:37.566Z,98301.45
2019-01-08T15:37:04.972Z,98299.51
2019-01-08T15:39:31.925Z,98301.50
2019-01-08T15:42:00.250Z,98304.92
2019-01-08T15:44:27.449Z,98315.17
2019-01-08T15:46:54.441Z,98303.43
2019-01-08T15:49:21.413Z,98305.75
2019-01-08T15:51:48.376Z,98294.93
2019-01-08T15:54:15.398Z,98290.64
2019-01-08T15:56:44.719Z,98290.19
2019-01-08T15:59:11.280Z,98295.91
2019-01-08T16:01:39.181Z,98295.48
2019-01-08T16:04:06.147Z,98300.70
2019-01-08T16:06:33.145Z,98297.38
2019-01-08T16:09:00.130Z,98287.42
2019-01-08T16:11:27.155Z,98296.83
2019-01-08T16:13:55.097Z,98287.94
2019-01-08T16:16:22.117Z,98290.20
2019-01-08T16:18:49.293Z,98292.47
2019-01-08T16:21:16.300Z,98288.29
2019-01-08T16:23:43.552Z,98290.66
2019-01-08T16:26:10.539Z,98292.67
2019-01-08T16:28:37.781Z,98306.88
2019-01-08T16:31:05.094Z,98293.58
2019-01-08T16:33:38.100Z,98303.05
2019-01-08T16:36:06.689Z,98302.48
2019-01-08T16:38:35.291Z,98300.11
2019-01-08T16:41:02.545Z,98294.50
2019-01-08T16:43:29.802Z,98296.21
2019-01-08T16:45:56.773Z,98287.66
2019-01-08T16:48:24.033Z,98291.94
2019-01-08T16:50:50.961Z,98292.32
2019-01-08T16:53:17.966Z,98287.98
2019-01-08T16:55:46.944Z,98296.01
2019-01-08T16:58:15.038Z,98295.06
2019-01-08T17:00:41.921Z,98296.88
2019-01-08T17:03:09.150Z,98295.61
2019-01-08T17:05:36.015Z,98294.45
2019-01-08T17:08:03.348Z,98292.10
2019-01-08T17:10:30.229Z,98300.38
2019-01-08T17:12:57.538Z,98302.98
2019-01-08T17:15:24.415Z,98303.51
2019-01-08T17:17:51.402Z,98292.99
2019-01-08T17:20:18.698Z,98290.36
2019-01-08T17:22:45.963Z,98294.56
2019-01-08T17:25:12.953Z,98281.98
2019-01-08T17:27:39.931Z,98284.33
2019-01-08T17:30:06.821Z,98285.23
2019-01-08T17:32:34.242Z,98287.48
2019-01-08T17:35:01.588Z,98294.28
2019-01-08T17:37:28.838Z,98288.18
2019-01-08T17:39:55.727Z,98276.61
2019-01-08T17:42:22.896Z,98280.72
2019-01-08T17:44:49.933Z,98272.52
2019-01-08T17:47:17.295Z,98273.50
2019-01-08T17:49:44.336Z,98263.30
2019-01-08T17:52:11.351Z,98271.64
2019-01-08T17:54:38.438Z,98273.74
2019-01-08T17:57:08.841Z,98276.80
2019-01-08T17:59:35.869Z,98277.08
2019-01-08T18:02:02.804Z,98275.53
2019-01-08T18:04:29.796Z,98283.24
2019-01-08T18:06:57.003Z,98283.21
2019-01-08T18:09:24.860Z,98276.80
2019-01-08T18:11:52.447Z,98283.56
2019-01-08T18:14:19.836Z,98273.73
2019-01-08T18:16:47.099Z,98271.56
2019-01-08T18:19:14.446Z,98276.36
2019-01-08T18:21:41.483Z,98265.12
2019-01-08T18:24:08.833Z,98270.31
2019-01-08T18:26:36.352Z,98271.17
2019-01-08T18:29:03.774Z,98261.34
2019-01-08T18:31:38.146Z,98256.68
2019-01-08T18:34:05.411Z,98256.14
2019-01-08T18:36:32.800Z,98264.01
2019-01-08T18:39:02.063Z,98259.95
2019-01-08T18:41:30.828Z,98260.77
2019-01-08T18:43:57.887Z,98267.67
2019-01-08T18:46:24.864Z,98258.06
2019-01-08T18:48:52.016Z,98261.81
2019-01-08T18:51:19.226Z,98272.41
2019-01-08T18:53:46.507Z,98268.00
2019-01-08T18:56:13.787Z,98263.08
2019-01-08T18:58:42.037Z,98268.23
2019-01-08T19:01:08.965Z,98278.72
2019-01-08T19:03:37.591Z,98268.27
2019-01-08T19:06:04.940Z,98267.69
2019-01-08T19:08:32.945Z,98270.91
2019-01-08T19:11:07.115Z,98272.46
2019-01-08T19:13:34.383Z,98277.11
2019-01-08T19:16:05.484Z,98276.79
2019-01-08T19:18:37.654Z,98275.02
2019-01-08T19:21:04.841Z,98263.25
2019-01-08T19:23:35.365Z,98275.35
2019-01-08T19:26:02.306Z,98270.40
2019-01-08T19:28:35.437Z,98270.15
2019-01-08T19:31:02.514Z,98262.38
2019-01-08T19:33:35.295Z,98273.88
2019-01-08T19:36:13.310Z,98270.52
2019-01-08T19:38:55.067Z,98278.27
2019-01-08T19:41:41.620Z,98274.98
2019-01-08T19:47:20.140Z,98272.55
2019-01-08T19:53:02.065Z,98272.73
2019-01-08T19:55:36.932Z,98273.45
2019-01-08T19:58:06.899Z,98284.36
2019-01-08T20:00:41.808Z,98292.63
2019-01-08T20:03:09.267Z,98288.13
2019-01-08T20:06:04.282Z,98300.16
2019-01-08T20:08:30.024Z,98311.20
2019-01-08T20:10:57.048Z,98319.96
2019-01-08T20:14:05.905Z,98318.73
2019-01-08T20:18:51.175Z,98325.38
2019-01-08T20:21:25.086Z,98330.84
2019-01-08T20:24:07.630Z,98340.00
2019-01-08T20:29:31.287Z,98339.41
2019-01-08T20:31:58.250Z,98337.10
2019-01-08T20:34:26.801Z,98333.66
2019-01-08T20:37:12.316Z,98336.96
2019-01-08T20:39:31.946Z,98337.59
2019-01-08T20:44:57.437Z,98334.86
2019-01-08T20:47:16.515Z,98327.06
2019-01-08T20:49:43.510Z,98325.83
2019-01-08T20:52:11.872Z,98325.14
2019-01-08T20:54:56.129Z,98320.01
2019-01-08T20:57:21.995Z,98325.48
2019-01-08T20:59:49.309Z,98321.81
2019-01-08T21:02:16.602Z,98321.80
2019-01-08T21:04:44.957Z,98323.69
2019-01-08T21:10:21.430Z,98319.72
2019-01-08T21:12:29.192Z,98328.58
2019-01-08T21:15:05.546Z,98329.31
2019-01-08T21:17:35.400Z,98334.44
2019-01-08T21:20:02.616Z,98328.55
2019-01-08T21:22:38.942Z,98329.50
2019-01-08T21:25:24.878Z,98340.86
2019-01-08T21:27:52.915Z,98331.44
2019-01-08T21:30:20.049Z,98326.92
2019-01-08T21:32:47.581Z,98325.63
2019-01-08T21:35:14.876Z,98318.67
2019-01-08T21:37:42.549Z,98325.40
2019-01-08T21:40:09.894Z,98321.05
2019-01-08T21:42:40.073Z,98326.70
2019-01-08T21:45:08.045Z,98320.48
2019-01-08T21:47:36.857Z,98325.47
2019-01-08T21:50:04.353Z,98320.05
2019-01-08T21:52:31.523Z,98321.69
2019-01-08T21:55:02.848Z,98321.83
2019-01-08T21:57:30.286Z,98327.83
2019-01-08T22:00:05.774Z,98323.77
2019-01-08T22:02:34.958Z,98310.88
2019-01-08T22:05:02.194Z,98311.39
2019-01-08T22:07:29.253Z,98309.53
2019-01-08T22:12:43.838Z,98318.47
2019-01-08T22:15:13.106Z,98316.48
2019-01-08T22:17:40.072Z,98313.89
2019-01-08T22:20:07.234Z,98315.53
2019-01-08T22:22:38.098Z,98313.49
2019-01-08T22:25:04.447Z,98320.12
2019-01-08T22:27:31.718Z,98310.48
2019-01-08T22:29:58.694Z,98311.84
2019-01-08T22:32:26.025Z,98306.87
2019-01-08T22:35:01.805Z,98307.23
2019-01-08T22:37:22.101Z,98314.97
2019-01-08T22:39:49.938Z,98304.33
2019-01-08T22:42:17.117Z,98306.48
2019-01-08T22:44:44.054Z,98311.10
2019-01-08T22:47:11.277Z,98325.98
2019-01-08T22:49:38.217Z,98326.72
2019-01-08T22:52:05.609Z,98326.13
2019-01-08T22:54:32.561Z,98328.88
2019-01-08T22:56:59.512Z,98329.09
2019-01-08T22:59:26.478Z,98324.27
2019-01-08T23:01:53.364Z,98320.54
2019-01-08T23:04:20.558Z,98319.72
2019-01-08T23:06:47.833Z,98320.20
2019-01-08T23:09:14.982Z,98314.15
2019-01-08T23:11:41.997Z,98318.34
2019-01-08T23:14:08.910Z,98314.41
2019-01-08T23:16:36.130Z,98314.30
2019-01-08T23:19:03.100Z,98317.52
2019-01-08T23:21:30.102Z,98330.97
2019-01-08T23:23:57.100Z,98319.13
2019-01-08T23:26:24.052Z,98316.18
2019-01-08T23:28:51.222Z,98316.16
2019-01-08T23:31:18.331Z,98306.94
2019-01-08T23:33:45.228Z,98310.66
2019-01-08T23:36:12.553Z,98309.67
2019-01-08T23:38:39.896Z,98309.11
2019-01-08T23:41:07.062Z,98308.57
2019-01-08T23:43:34.001Z,98299.09
2019-01-08T23:46:00.950Z,98310.81
2019-01-08T23:48:28.236Z,98303.66
2019-01-08T23:50:55.184Z,98306.32
2019-01-08T23:53:22.512Z,98302.91
2019-01-08T23:55:50.786Z,98307.77
2019-01-08T23:58:19.009Z,98292.77
